createdAt,value
2018-10-16T00:02:08.801Z,16.70
2018-10-16T00:07:14.120Z,16.70
2018-10-16T00:12:19.440Z,16.80
2018-10-16T00:17:24.958Z,16.70
2018-10-16T00:22:30.630Z,16.60
2018-10-16T00:27:36.062Z,16.50
2018-10-16T00:32:42.477Z,16.50
2018-10-16T00:37:47.549Z,16.40
2018-10-16T00:42:53.324Z,16.40
2018-10-16T00:47:58.830Z,16.40
2018-10-16T00:53:04.331Z,16.40
2018-10-16T00:58:09.474Z,16.40
2018-10-16T01:03:15.159Z,16.40
2018-10-16T01:08:20.237Z,16.40
2018-10-16T01:13:25.949Z,16.40
2018-10-16T01:18:31.810Z,16.50
2018-10-16T01:23:37.360Z,16.50
2018-10-16T01:28:42.764Z,16.50
2018-10-16T01:33:48.361Z,16.50
2018-10-16T01:38:54.236Z,16.50
2018-10-16T01:43:59.356Z,16.50
2018-10-16T01:49:04.591Z,16.40
2018-10-16T01:54:09.845Z,16.40
2018-10-16T01:59:20.077Z,16.40
2018-10-16T02:04:24.992Z,16.40
2018-10-16T02:09:30.295Z,16.30
2018-10-16T02:14:43.081Z,16.20
2018-10-16T02:19:48.241Z,16.10
2018-10-16T02:25:00.325Z,16.20
2018-10-16T02:30:05.625Z,16.00
2018-10-16T02:35:11.846Z,15.80
2018-10-16T02:40:17.540Z,15.80
2018-10-16T02:45:22.725Z,15.80
2018-10-16T02:50:28.103Z,15.80
2018-10-16T02:55:39.767Z,15.70
2018-10-16T03:00:45.101Z,15.90
2018-10-16T03:05:50.765Z,15.90
2018-10-16T03:10:55.785Z,15.70
2018-10-16T03:16:01.246Z,15.50
2018-10-16T03:21:06.805Z,15.40
2018-10-16T03:26:11.907Z,15.50
2018-10-16T03:31:17.007Z,15.40
2018-10-16T03:36:22.631Z,15.30
2018-10-16T03:41:28.071Z,15.40
2018-10-16T03:46:33.526Z,15.20
2018-10-16T03:51:39.042Z,15.30
2018-10-16T03:56:44.077Z,15.40
2018-10-16T04:01:49.565Z,15.50
2018-10-16T04:06:54.765Z,15.40
2018-10-16T04:11:59.873Z,15.40
2018-10-16T04:17:05.248Z,15.40
2018-10-16T04:22:10.414Z,15.50
2018-10-16T04:27:19.081Z,15.60
2018-10-16T04:32:24.280Z,15.50
2018-10-16T04:37:29.485Z,15.40
2018-10-16T04:42:34.664Z,15.30
2018-10-16T04:47:40.723Z,15.30
2018-10-16T04:52:45.846Z,15.40
2018-10-16T04:57:51.473Z,15.40
2018-10-16T05:02:58.177Z,15.50
2018-10-16T05:08:03.316Z,15.50
2018-10-16T05:13:08.873Z,15.50
2018-10-16T05:18:14.101Z,15.60
2018-10-16T05:23:22.471Z,15.60
2018-10-16T05:28:27.504Z,15.70
2018-10-16T05:33:32.957Z,15.70
2018-10-16T05:38:38.424Z,15.80
2018-10-16T05:43:43.427Z,15.90
2018-10-16T05:48:48.750Z,15.80
2018-10-16T05:53:53.954Z,15.70
2018-10-16T05:58:59.140Z,15.60
2018-10-16T06:04:04.153Z,15.80
2018-10-16T06:09:09.763Z,15.90
2018-10-16T06:14:15.174Z,15.80
2018-10-16T06:19:20.665Z,15.60
2018-10-16T06:24:25.935Z,15.60
2018-10-16T06:29:31.090Z,15.60
2018-10-16T06:34:36.248Z,15.60
2018-10-16T06:39:41.535Z,15.70
2018-10-16T06:44:46.655Z,15.70
2018-10-16T06:49:52.215Z,15.70
2018-10-16T06:54:57.297Z,15.70
2018-10-16T07:00:02.489Z,15.80
2018-10-16T07:05:08.691Z,15.80
2018-10-16T07:10:14.161Z,15.90
2018-10-16T07:15:19.739Z,16.10
2018-10-16T07:20:25.290Z,16.30
2018-10-16T07:25:30.454Z,16.40
2018-10-16T07:30:35.546Z,16.70
2018-10-16T07:35:43.727Z,16.80
2018-10-16T07:40:49.046Z,16.90
2018-10-16T07:46:03.268Z,16.90
2018-10-16T07:51:14.291Z,17.10
2018-10-16T07:56:19.593Z,17.20
2018-10-16T08:01:24.910Z,17.50
2018-10-16T08:06:44.630Z,17.70
2018-10-16T08:11:50.977Z,17.60
2018-10-16T08:16:56.405Z,17.70
2018-10-16T08:22:01.677Z,17.80
2018-10-16T08:27:07.147Z,17.90
2018-10-16T08:32:12.729Z,18.20
2018-10-16T08:37:35.501Z,18.40
2018-10-16T08:42:57.828Z,18.50
2018-10-16T08:50:16.375Z,18.80
2018-10-16T08:55:21.967Z,19.00
2018-10-16T09:00:27.456Z,19.30
2018-10-16T09:05:32.686Z,19.40
2018-10-16T09:10:38.189Z,19.80
2018-10-16T09:15:43.414Z,20.30
2018-10-16T09:20:49.069Z,20.40
2018-10-16T09:25:54.338Z,20.50
2018-10-16T09:30:59.373Z,20.50
2018-10-16T09:36:04.675Z,20.70
2018-10-16T09:41:09.794Z,21.20
2018-10-16T09:46:15.125Z,21.00
2018-10-16T09:51:20.662Z,21.10
2018-10-16T09:56:26.046Z,21.10
2018-10-16T10:01:36.381Z,21.30
2018-10-16T10:06:41.525Z,21.50
2018-10-16T10:11:46.787Z,21.30
2018-10-16T10:16:51.957Z,21.80
2018-10-16T10:21:58.277Z,22.30
2018-10-16T10:27:03.600Z,22.40
2018-10-16T10:32:08.894Z,22.50
2018-10-16T10:37:13.914Z,22.90
2018-10-16T10:42:20.196Z,23.60
2018-10-16T10:47:25.303Z,23.60
2018-10-16T10:52:30.569Z,24.00
2018-10-16T10:57:36.222Z,24.20
2018-10-16T11:02:42.082Z,24.50
2018-10-16T11:07:47.462Z,24.80
2018-10-16T11:18:38.684Z,25.50
2018-10-16T11:23:44.107Z,25.60
2018-10-16T11:28:52.548Z,25.10
2018-10-16T11:33:57.842Z,25.20
2018-10-16T11:39:03.503Z,25.30
2018-10-16T11:44:10.456Z,25.00
2018-10-16T11:49:15.893Z,24.80
2018-10-16T11:54:21.235Z,25.50
2018-10-16T11:59:31.888Z,24.60
2018-10-16T12:04:37.126Z,24.90
2018-10-16T12:09:56.841Z,24.30
2018-10-16T12:15:01.899Z,24.40
2018-10-16T12:20:15.891Z,24.80
2018-10-16T12:25:20.948Z,25.00
2018-10-16T12:30:25.982Z,24.80
2018-10-16T12:35:31.393Z,24.40
2018-10-16T12:40:42.387Z,24.60
2018-10-16T12:45:48.538Z,24.90
2018-10-16T12:50:53.768Z,25.00
2018-10-16T12:56:00.282Z,25.00
2018-10-16T13:01:06.675Z,24.80
2018-10-16T13:06:12.147Z,25.30
2018-10-16T13:11:17.424Z,24.80
2018-10-16T13:16:22.779Z,24.40
2018-10-16T13:21:28.047Z,24.50
2018-10-16T13:26:35.297Z,24.30
2018-10-16T13:31:40.821Z,23.50
2018-10-16T13:36:46.995Z,23.30
2018-10-16T13:41:52.800Z,23.00
2018-10-16T13:46:58.358Z,22.80
2018-10-16T13:52:03.544Z,22.70
2018-10-16T13:57:09.304Z,22.60
2018-10-16T14:02:14.971Z,22.50
2018-10-16T14:07:20.504Z,22.40
2018-10-16T14:12:25.544Z,22.60
2018-10-16T14:17:31.318Z,22.70
2018-10-16T14:22:37.226Z,22.70
2018-10-16T14:27:43.161Z,22.30
2018-10-16T14:32:48.487Z,21.90
2018-10-16T14:37:53.892Z,21.00
2018-10-16T14:42:59.410Z,20.70
2018-10-16T14:48:04.597Z,20.40
2018-10-16T14:53:10.131Z,20.40
2018-10-16T14:58:15.729Z,20.50
2018-10-16T15:03:21.119Z,20.40
2018-10-16T15:08:26.555Z,20.30
2018-10-16T15:13:31.871Z,20.30
2018-10-16T15:18:37.278Z,20.50
2018-10-16T15:23:43.987Z,20.70
2018-10-16T15:28:49.093Z,20.60
2018-10-16T15:33:54.594Z,20.90
2018-10-16T15:39:00.191Z,21.30
2018-10-16T15:44:05.374Z,21.60
2018-10-16T15:49:10.756Z,22.60
2018-10-16T15:54:15.805Z,23.60
2018-10-16T15:59:21.390Z,22.50
2018-10-16T16:04:26.943Z,22.10
2018-10-16T16:09:32.157Z,22.10
2018-10-16T16:14:37.275Z,22.20
2018-10-16T16:19:42.463Z,22.10
2018-10-16T16:24:47.694Z,22.00
2018-10-16T16:29:52.889Z,22.00
2018-10-16T16:34:58.372Z,21.90
2018-10-16T16:40:03.671Z,21.70
2018-10-16T16:45:09.576Z,21.60
2018-10-16T16:50:14.944Z,21.40
2018-10-16T16:55:20.216Z,21.50
2018-10-16T17:00:26.568Z,21.40
2018-10-16T17:05:32.119Z,21.20
2018-10-16T17:10:37.119Z,20.70
2018-10-16T17:15:42.313Z,20.60
2018-10-16T17:20:47.362Z,20.60
2018-10-16T17:25:53.286Z,20.50
2018-10-16T17:30:58.417Z,20.40
2018-10-16T17:36:03.960Z,20.50
2018-10-16T17:41:09.132Z,20.40
2018-10-16T17:46:14.524Z,20.20
2018-10-16T17:51:19.572Z,20.30
2018-10-16T17:56:24.798Z,20.30
2018-10-16T18:01:33.340Z,20.30
2018-10-16T18:06:38.498Z,20.30
2018-10-16T18:11:43.621Z,19.90
2018-10-16T18:16:48.888Z,19.70
2018-10-16T18:21:54.129Z,19.40
2018-10-16T18:26:59.830Z,19.20
2018-10-16T18:32:05.186Z,18.90
2018-10-16T18:37:10.176Z,18.90
2018-10-16T18:42:15.522Z,18.90
2018-10-16T18:47:21.058Z,18.80
2018-10-16T18:52:26.998Z,19.00
2018-10-16T18:57:32.125Z,19.30
2018-10-16T19:02:37.606Z,19.40
2018-10-16T19:07:42.808Z,19.50
2018-10-16T19:12:48.624Z,19.50
2018-10-16T19:17:57.970Z,19.20
2018-10-16T19:23:03.434Z,19.10
2018-10-16T19:28:09.348Z,18.90
2018-10-16T19:33:14.593Z,18.70
2018-10-16T19:38:20.233Z,18.70
2018-10-16T19:43:25.710Z,18.70
2018-10-16T19:48:30.604Z,18.50
2018-10-16T19:53:35.679Z,18.30
2018-10-16T19:58:40.802Z,18.50
2018-10-16T20:03:45.823Z,18.60
2018-10-16T20:08:51.635Z,18.60
2018-10-16T20:13:57.073Z,18.70
2018-10-16T20:19:02.054Z,18.70
2018-10-16T20:24:07.309Z,18.70
2018-10-16T20:29:12.228Z,18.70
2018-10-16T20:34:17.088Z,18.70
2018-10-16T20:39:22.178Z,18.60
2018-10-16T20:44:27.133Z,18.70
2018-10-16T20:49:32.036Z,18.70
2018-10-16T20:54:37.025Z,18.70
2018-10-16T20:59:42.894Z,18.70
2018-10-16T21:04:48.060Z,18.90
2018-10-16T21:09:53.300Z,19.20
2018-10-16T21:14:58.297Z,19.30
2018-10-16T21:20:03.318Z,19.20
2018-10-16T21:25:08.855Z,19.10
2018-10-16T21:30:13.995Z,18.90
2018-10-16T21:35:18.972Z,18.80
2018-10-16T21:40:24.200Z,18.70
2018-10-16T21:45:29.219Z,18.70
2018-10-16T21:50:34.353Z,18.60
2018-10-16T21:55:39.211Z,18.80
2018-10-16T22:00:49.110Z,18.90
2018-10-16T22:05:54.296Z,18.90
2018-10-16T22:10:59.367Z,18.80
2018-10-16T22:16:04.399Z,18.80
2018-10-16T22:21:09.292Z,18.80
2018-10-16T22:26:14.171Z,18.90
2018-10-16T22:31:20.330Z,18.60
2018-10-16T22:36:25.557Z,18.50
2018-10-16T22:41:30.808Z,18.20
2018-10-16T22:46:36.528Z,17.90
2018-10-16T22:51:41.461Z,18.10
2018-10-16T22:56:46.442Z,18.10
2018-10-16T23:01:51.509Z,18.00
2018-10-16T23:06:56.607Z,17.80
2018-10-16T23:12:01.541Z,17.70
2018-10-16T23:17:06.776Z,17.60
2018-10-16T23:22:11.676Z,17.60
2018-10-16T23:27:16.553Z,17.50
2018-10-16T23:32:21.508Z,17.50
2018-10-16T23:37:26.767Z,17.50
2018-10-16T23:42:31.821Z,17.70
2018-10-16T23:47:36.778Z,17.60
2018-10-16T23:52:41.661Z,17.50
2018-10-16T23:57:46.607Z,17.30
